AirNav   Phillips 66 Aviation Fuel
 
 1358 users online  

KZER Schuylkill County / Joe Zerbey Airport
Pottsville, Pennsylvania, USA

GOING TO POTTSVILLE?


FAA INFORMATION EFFECTIVE 14 SEPTEMBER 2017

Location

FAA Identifier: ZER
Lat/Long: 40-42-23.3000N / 076-22-23.3000W
40-42.388333N / 076-22.388333W
40.7064722 / -76.3731389
(estimated)
Elevation: 1729.4 ft. / 527.1 m (surveyed)
Variation: 12W (2000)
From city: 8 miles W of POTTSVILLE, PA
Time zone: UTC -4 (UTC -5 during Standard Time)
Zip code: 17921

Airport Operations

Airport use: Open to the public
Activation date: 10/1959
Control tower: no
ARTCC: NEW YORK CENTER
FSS: WILLIAMSPORT FLIGHT SERVICE STATION
NOTAMs facility: IPT (NOTAM-D service available)
Attendance: MON-FRI 0730-1700, ALL SAT - SUN ON CALL
FOR SVC AFTER HRS 570-617-6002.
Pattern altitude: 2500.4 ft. MSL
Wind indicator: lighted
Segmented circle: no
Lights: ACTIVATE REIL RY 11/29; MIRL RY 11/29 - CTAF.
Beacon: white-green (lighted land airport)
Operates sunset to sunrise.

Airport Communications

CTAF/UNICOM: 123.075
WX AWOS-3: 127.57 (570-544-2778)
HARRISBURG APPROACH: 118.25
HARRISBURG DEPARTURE: 118.25
WX AWOS-3 at N79 (11 nm NW): 119.175 (570-672-0389)
WX ASOS at MUI (19 nm SW): 124.175 (717-861-6493)
WX AWOS-3 at 79PN (19 nm NW): 118.075 (570-271-8192)
  • RAVINE RCO 122.1R 114.6T (WILLIAMSPORT RADIO)

Nearby radio navigation aids

VOR radial/distance  VOR name  Freq  Var
RAVr059/13.8RAVINE VORTAC114.6011W
HZLr224/(19.6)HAZLETON VOR109.4009W
MIPr154/23.2MILTON VORTAC109.2009W
SEGr110/23.8SELINSGROVE VORTAC110.4008W
ETXr292/32.3EAST TEXAS VOR/DME110.2009W
LRPr003/35.4LANCASTER VOR/DME117.3009W
HARr063/40.0HARRISBURG VORTAC112.5010W

 
NDB name  Hdg/Dist  Freq  Var  ID
BELLGROVE037/18.232810WBZJ -... --.. .---
PICTURE ROCKS165/37.534409WPIX .--. .. -..-

Airport Services

Fuel available: 100LL JET-A
AVGAS SELF SERVE WITH CREDIT CARD.
JET-A SELF-SERVE WITH CREDIT CARD.
Parking: hangars and tiedowns
Airframe service: MINOR
Powerplant service: MINOR
Bottled oxygen: NONE
Bulk oxygen: NONE

Runway Information

Runway 11/29

Dimensions: 4599 x 75 ft. / 1402 x 23 m
Surface: asphalt, in good condition
Weight bearing capacity: 
Single wheel: 21.0
Runway edge lights: medium intensity
RUNWAY 11  RUNWAY 29
Latitude: 40-42.385858N40-42.282017N
Longitude: 076-23.021483W076-22.035672W
Elevation: 1729.4 ft.1706.5 ft.
Gradient: 0.5%0.5%
Traffic pattern: leftleft
Runway heading: 110 magnetic, 098 true290 magnetic, 278 true
Markings: nonprecision, in good conditionnonprecision, in good condition
Visual slope indicator: 2-light PAPI on left (3.00 degrees glide path)
PAPI RY 11 ON CONTINUOUSLY.
2-light PAPI on left (3.00 degrees glide path)
PAPI RY 29 ON CONTINUOUSLY.
Runway end identifier lights: yesyes
Touchdown point: yes, no lightsyes, no lights
Obstructions: 13 ft. tree, 352 ft. from runway, 265 ft. right of centerline, 11:1 slope to clear6 ft. brush, 342 ft. from runway, 182 ft. left of centerline, 23:1 slope to clear

Runway 4/22

Dimensions: 2270 x 140 ft. / 692 x 43 m
Surface: turf, in good condition
Runway edge markings: RY 04/22 EDGE & DSPLCD THLD MKD WITH ORANGE CONES.
Operational restrictions: RY 04/22 NOT MAINTAINED WINTER MONTHS.
RUNWAY 4  RUNWAY 22
Latitude: 40-42.336778N40-42.657167N
Longitude: 076-22.231975W076-21.979000W
Elevation: 1707.1 ft.1714.4 ft.
Gradient: 0.3% UP
Traffic pattern: leftleft
Runway heading: 043 magnetic, 031 true223 magnetic, 211 true
Displaced threshold: no200 ft.
Touchdown point: yes, no lightsyes, no lights
Obstructions: none23 ft. trees, 34 ft. from runway, 216 ft. right of centerline, 1:1 slope to clear
RY 22 APCH RATIO 10:1 TO DSPLCD THLD.

Airport Ownership and Management from official FAA records

Ownership: Publicly-owned
Owner: SCHUYLKILL COUNTY A/P AUTH
240 AIRPORT ROAD
POTTSVILLE, PA 17901
Phone 570-544-6002
Manager: BILL WILLARD
240 AIRPORT ROAD
POTTSVILLE, PA 17901
Phone 570-544-6002
OR 570-617-6002

Airport Operational Statistics

Aircraft based on the field: 31
Single engine airplanes: 26
Multi engine airplanes: 4
Jet airplanes: 1
    
Aircraft operations: avg 77/day *
45% local general aviation
31% transient general aviation
22% military
2% air taxi
* for 12-month period ending 15 August 2016

Additional Remarks

DEER ON & INVOF ARPT.
FOR CD CTC MDT APCH AT 800-932-0712.
OBSTRUCTION DRAGLINE 200 FT AGL .5 NM RWY 11/29.
GPU AVAILABLE FOR AC/DC POWER.

Instrument Procedures

NOTE: All procedures below are presented as PDF files. If you need a reader for these files, you should download the free Adobe Reader.

NOT FOR NAVIGATION. Please procure official charts for flight.
FAA instrument procedures published for use between 14 September 2017 at 0901Z and 12 October 2017 at 0900Z.

 
IAPs - Instrument Approach Procedures
RNAV (GPS) RWY 11   download (226KB)
RNAV (GPS) RWY 29   download (222KB)
VOR OR GPS RWY 04   download (171KB)
NOTE: Special Take-Off Minimums/Departure Procedures apply   download (149KB)

Other nearby airports with instrument procedures:

N79 - Northumberland County Airport (11 nm NW)
74N - Bendigo Airport (12 nm SW)
N13 - Bloomsburg Municipal Airport (18 nm N)
KMUI - Muir Army Airfield (Fort Indiantown Gap) (19 nm SW)
8N8 - Danville Airport (19 nm NW)
 
Loc | Ops | Rwys | IFR | FBO | Links
Com | Nav | Svcs | Stats | Notes


 
Area around KZER (Schuylkill County / Joe Zerbey Airport)
 
Road maps at: MapQuest Bing Google
 
Aerial photo
WARNING: Photo may not be current or correct
Aerial photo of KZER (Schuylkill County / Joe Zerbey Airport)
Photo by David Newcomer
Photo taken 03-Feb-2017
looking northeast from 4,000 altitude.

Do you have a better or more recent aerial photo of Schuylkill County / Joe Zerbey Airport that you would like to share? If so, please send us your photo.

 
Sectional chart

 
Airport distance calculator
Flying to Schuylkill County / Joe Zerbey Airport? Find the distance to fly.

From to KZER

Sunrise and sunset
Times for 26-Sep-2017
 Local
(UTC-4)
 Zulu
(UTC)
Morning civil twilight06:3110:31
Sunrise06:5810:58
Sunset18:5622:56
Evening civil twilight19:2323:23

Current date and time
Zulu (UTC)  26-Sep-2017 13:43:54
Local (UTC-4)  26-Sep-2017 09:43:54
 
METAR
KMUI 
19nm SW 
261258Z 00000KT 9SM BKN042 21/21 A3006 RMK AO2A SLP179 T02100210
KSEG 
23nm W 
261253Z AUTO 36003KT 3SM BR CLR 21/21 A3007 RMK AO2 SLP180 T02110206
KHZL 
24nm NE 
261315Z AUTO 00000KT 10SM CLR 25/19 A3013 RMK AO2
KRDG 
28nm SE 
261254Z 00000KT 10SM CLR 22/19 A3005 RMK AO2 SLP177 T02170194
KMDT 
35nm SW 
261256Z 00000KT 4SM BR BKN043 22/21 A3005 RMK AO2 SLP174 T02220206
KLNS 
36nm S 
261253Z 00000KT 5SM BR CLR 22/21 A3005 RMK AO2 SLP173 T02170206
KCXY 
37nm SW 
261256Z 00000KT 4SM HZ SCT045 23/19 A3006 RMK AO2 SLP176 T02280194
TAF
KMUI 
19nm SW 
251900Z 2519/2701 07006KT 9999 FEW040 QNH2998INS BECMG 2606/2607 07006KT 4800 BR SCT030 QNH3001INS BECMG 2608/2609 VRB06KT 0800 FG BKN007 QNH3000INS BECMG 2615/2616 07006KT 6000 BR SKC QNH3002INS BECMG 2617/2618 07006KT 9999 NSW FEW030 QNH2996INS TX33/2519Z TN17/2612Z LAST NO AMDS AFT 2604 NEXT 2611
NOTAMs
Click for the latest NOTAMs
NOTAMs are issued by the DoD/FAA and will open in a separate window not controlled by AirNav.

 

 
 

FBO, Fuel Providers, and Aircraft Ground Support

  
 Business Name 
 
 Contact 
 
 Services / Description 
 
Fuel Prices
 
Comments
  
Schuylkill County Airport 570-544-6002
no information available

If you are affiliated with Schuylkill County Airport and would like to show here your services, contact info, web link, logo, and more, click here
100LL Jet A
FS $5.18 $4.01 
SS $5.08 $3.91 
 Updated 26-Jul-2017
 
   1 read write
FS=Full service
SS=Self service
Update Fuel Prices
 

Would you like to see your business listed on this page?

 If your business provides an interesting product or service to pilots, flight crews, aircraft, or users of the Schuylkill County / Joe Zerbey Airport, you should consider listing it here.  To start the listing process, click on the button below
 
Add a business
 

Other Pages about Schuylkill County / Joe Zerbey Airport

Update a link
 
Copyright © AirNav, LLC. All rights reserved. Privacy Policy  Contact